createdAt,value
2023-03-05T00:00:13.167Z,69.97
2023-03-05T00:01:22.873Z,70.09
2023-03-05T00:02:25.207Z,70.23
2023-03-05T00:03:28.558Z,70.05
2023-03-05T00:04:30.865Z,70.17
2023-03-05T00:05:34.940Z,70.13
2023-03-05T00:06:37.393Z,70.33
2023-03-05T00:07:40.803Z,70.08
2023-03-05T00:08:43.457Z,70.20
2023-03-05T00:09:46.852Z,69.52
2023-03-05T00:10:57.399Z,69.52
2023-03-05T00:12:00.776Z,69.73
2023-03-05T00:13:03.242Z,69.76
2023-03-05T00:14:07.008Z,69.59
2023-03-05T00:15:11.007Z,69.26
2023-03-05T00:16:15.911Z,69.41
2023-03-05T00:17:18.369Z,69.20
2023-03-05T00:18:22.143Z,69.57
2023-03-05T00:19:24.323Z,68.86
2023-03-05T00:20:28.328Z,68.74
2023-03-05T00:21:33.107Z,69.04
2023-03-05T00:22:37.053Z,68.82
2023-03-05T00:23:39.259Z,69.30
2023-03-05T00:24:42.791Z,69.59
2023-03-05T00:25:46.722Z,69.83
2023-03-05T00:26:52.174Z,69.46
2023-03-05T00:27:54.545Z,69.34
2023-03-05T00:28:59.286Z,69.45
2023-03-05T00:30:01.590Z,68.87
2023-03-05T00:31:06.033Z,68.37
2023-03-05T00:32:08.611Z,68.82
2023-03-05T00:33:14.493Z,68.41
2023-03-05T00:34:19.160Z,68.36
2023-03-05T00:35:23.050Z,68.39
2023-03-05T00:36:28.811Z,68.80
2023-03-05T00:37:32.186Z,69.30
2023-03-05T00:38:34.961Z,69.15
2023-03-05T00:39:38.680Z,69.18
2023-03-05T00:40:42.369Z,69.91
2023-03-05T00:41:48.336Z,69.97
2023-03-05T00:42:52.796Z,70.31
2023-03-05T00:43:57.220Z,70.55
2023-03-05T00:44:59.995Z,70.25
2023-03-05T00:46:03.620Z,70.43
2023-03-05T00:47:06.422Z,70.09
2023-03-05T00:48:10.834Z,69.77
2023-03-05T00:49:13.542Z,68.95
2023-03-05T00:50:17.288Z,69.27
2023-03-05T00:51:21.440Z,69.82
2023-03-05T00:52:24.898Z,69.78
2023-03-05T00:53:30.774Z,69.94
2023-03-05T00:54:35.508Z,70.83
2023-03-05T00:55:37.876Z,71.25
2023-03-05T00:56:41.647Z,71.66
2023-03-05T00:57:43.910Z,71.67
2023-03-05T00:58:49.125Z,72.06
2023-03-05T00:59:51.760Z,72.22
2023-03-05T01:01:00.247Z,72.60
2023-03-05T01:02:03.826Z,72.55
2023-03-05T01:03:11.217Z,72.42
2023-03-05T01:04:14.560Z,71.94
2023-03-05T01:05:17.024Z,72.17
2023-03-05T01:06:22.384Z,72.32
2023-03-05T01:07:24.855Z,72.56
2023-03-05T01:08:28.891Z,72.57
2023-03-05T01:09:31.444Z,72.70
2023-03-05T01:10:35.183Z,72.01
2023-03-05T01:11:37.758Z,71.44
2023-03-05T01:12:41.666Z,71.47
2023-03-05T01:13:43.979Z,70.91
2023-03-05T01:14:48.842Z,70.94
2023-03-05T01:15:51.777Z,70.56
2023-03-05T01:16:55.241Z,70.69
2023-03-05T01:17:57.736Z,71.18
2023-03-05T01:19:01.105Z,70.79
2023-03-05T01:20:03.797Z,70.87
2023-03-05T01:21:07.532Z,71.21
2023-03-05T01:22:09.891Z,71.21
2023-03-05T01:23:13.265Z,70.79
2023-03-05T01:24:16.825Z,70.88
2023-03-05T01:25:19.316Z,71.26
2023-03-05T01:26:22.660Z,71.46
2023-03-05T01:27:25.840Z,71.62
2023-03-05T01:28:29.834Z,71.67
2023-03-05T01:29:32.086Z,71.56
2023-03-05T01:30:37.097Z,71.74
2023-03-05T01:31:39.717Z,71.83
2023-03-05T01:32:43.486Z,71.58
2023-03-05T01:33:45.916Z,71.02
2023-03-05T01:34:49.250Z,71.09
2023-03-05T01:35:51.706Z,70.58
2023-03-05T01:36:54.993Z,70.86
2023-03-05T01:37:57.639Z,71.62
2023-03-05T01:39:01.457Z,71.32
2023-03-05T01:40:04.176Z,71.48
2023-03-05T01:41:07.729Z,71.18
2023-03-05T01:42:10.323Z,71.48
2023-03-05T01:43:26.514Z,71.14
2023-03-05T01:44:30.426Z,70.75
2023-03-05T01:45:34.081Z,71.84
2023-03-05T01:46:38.932Z,71.63
2023-03-05T01:47:42.194Z,71.52
2023-03-05T01:48:47.910Z,71.55
2023-03-05T01:49:51.672Z,71.84
2023-03-05T01:50:54.043Z,71.52
2023-03-05T01:52:03.959Z,71.40
2023-03-05T01:53:07.731Z,71.12
2023-03-05T01:54:13.048Z,70.79
2023-03-05T01:55:19.439Z,70.88
2023-03-05T01:56:22.307Z,71.27
2023-03-05T01:57:29.741Z,71.53
2023-03-05T01:58:32.713Z,71.52
2023-03-05T01:59:37.952Z,72.15
2023-03-05T02:00:44.359Z,72.16
2023-03-05T02:01:52.060Z,71.85
2023-03-05T02:02:57.259Z,72.02
2023-03-05T02:04:01.852Z,72.38
2023-03-05T02:05:10.858Z,71.65
2023-03-05T02:06:17.861Z,71.34
2023-03-05T02:07:24.859Z,70.75
2023-03-05T02:08:28.658Z,70.72
2023-03-05T02:09:33.996Z,70.79
2023-03-05T02:10:40.981Z,71.20
2023-03-05T02:11:45.342Z,71.68
2023-03-05T02:12:49.658Z,71.22
2023-03-05T02:13:53.250Z,71.38
2023-03-05T02:14:59.439Z,72.06
2023-03-05T02:16:03.972Z,71.66
2023-03-05T02:17:08.845Z,71.35
2023-03-05T02:18:12.628Z,71.47
2023-03-05T02:19:15.071Z,71.42
2023-03-05T02:20:21.828Z,71.23
2023-03-05T02:21:30.063Z,71.25
2023-03-05T02:22:34.000Z,71.45
2023-03-05T02:23:37.855Z,71.48
2023-03-05T02:24:41.464Z,71.48
2023-03-05T02:25:44.280Z,71.62
2023-03-05T02:26:48.879Z,71.63
2023-03-05T02:27:55.917Z,71.46
2023-03-05T02:29:02.375Z,71.42
2023-03-05T02:30:05.709Z,71.84
2023-03-05T02:31:14.405Z,71.95
2023-03-05T02:32:16.787Z,72.27
2023-03-05T02:33:22.353Z,72.69
2023-03-05T02:34:25.087Z,72.47
2023-03-05T02:35:28.634Z,72.46
2023-03-05T02:36:32.631Z,72.21
2023-03-05T02:37:36.064Z,72.56
2023-03-05T02:38:38.784Z,72.45
2023-03-05T02:39:42.459Z,72.66
2023-03-05T02:40:44.813Z,72.05
2023-03-05T02:41:48.489Z,72.04
2023-03-05T02:42:52.122Z,71.90
2023-03-05T02:43:55.653Z,72.01
2023-03-05T02:44:57.952Z,71.92
2023-03-05T02:46:01.648Z,71.61
2023-03-05T02:47:06.984Z,71.88
2023-03-05T02:48:10.653Z,72.43
2023-03-05T02:49:13.522Z,72.80
2023-03-05T02:50:16.886Z,72.39
2023-03-05T02:51:19.898Z,72.43
2023-03-05T02:52:25.618Z,72.70
2023-03-05T02:53:27.924Z,72.69
2023-03-05T02:54:31.373Z,71.71
2023-03-05T02:55:33.791Z,72.11
2023-03-05T02:56:38.342Z,72.40
2023-03-05T02:57:40.799Z,72.41
2023-03-05T02:58:44.438Z,72.46
2023-03-05T02:59:46.992Z,72.09
2023-03-05T03:00:50.701Z,72.21
2023-03-05T03:01:53.457Z,72.83
2023-03-05T03:02:56.825Z,72.84
2023-03-05T03:03:59.477Z,72.79
2023-03-05T03:05:02.912Z,72.95
2023-03-05T03:06:06.794Z,72.98
2023-03-05T03:07:10.560Z,72.34
2023-03-05T03:08:19.584Z,72.91
2023-03-05T03:09:22.884Z,73.07
2023-03-05T03:10:25.859Z,73.34
2023-03-05T03:11:29.147Z,73.99
2023-03-05T03:12:31.611Z,73.76
2023-03-05T03:13:35.144Z,73.27
2023-03-05T03:14:39.578Z,73.47
2023-03-05T03:15:42.933Z,73.82
2023-03-05T03:16:45.409Z,73.53
2023-03-05T03:17:48.696Z,73.10
2023-03-05T03:18:51.117Z,74.09
2023-03-05T03:19:54.395Z,74.78
2023-03-05T03:20:56.931Z,74.52
2023-03-05T03:22:00.511Z,74.42
2023-03-05T03:23:02.902Z,74.66
2023-03-05T03:24:08.357Z,74.87
2023-03-05T03:25:14.109Z,75.40
2023-03-05T03:26:17.877Z,75.17
2023-03-05T03:27:20.172Z,75.52
2023-03-05T03:28:23.644Z,74.62
2023-03-05T03:29:26.008Z,74.90
2023-03-05T03:30:29.259Z,74.48
2023-03-05T03:31:31.494Z,75.11
2023-03-05T03:32:35.304Z,75.57
2023-03-05T03:33:37.600Z,75.05
2023-03-05T03:34:41.182Z,75.59
2023-03-05T03:35:43.510Z,75.29
2023-03-05T03:36:48.692Z,75.14
2023-03-05T03:37:51.208Z,74.47
2023-03-05T03:38:54.447Z,74.29
2023-03-05T03:39:58.264Z,74.42
2023-03-05T03:41:01.662Z,74.72
2023-03-05T03:42:04.200Z,74.72
2023-03-05T03:43:07.782Z,74.53
2023-03-05T03:44:11.229Z,74.98
2023-03-05T03:45:14.189Z,74.83
2023-03-05T03:46:17.583Z,74.91
2023-03-05T03:47:19.817Z,75.15
2023-03-05T03:48:23.279Z,75.07
2023-03-05T03:49:27.096Z,74.97
2023-03-05T03:50:30.614Z,74.89
2023-03-05T03:51:33.489Z,75.17
2023-03-05T03:52:36.951Z,75.45
2023-03-05T03:53:39.349Z,75.47
2023-03-05T03:54:42.945Z,75.23
2023-03-05T03:55:47.223Z,75.34
2023-03-05T03:56:50.576Z,75.29
2023-03-05T03:57:52.863Z,75.39
2023-03-05T03:58:56.275Z,75.41
2023-03-05T03:59:58.659Z,75.65
2023-03-05T04:01:02.623Z,75.74
2023-03-05T04:02:04.996Z,75.69
2023-03-05T04:03:09.304Z,75.24
2023-03-05T04:04:13.816Z,74.92
2023-03-05T04:05:17.482Z,74.87
2023-03-05T04:06:19.733Z,74.78
2023-03-05T04:07:23.896Z,74.41
2023-03-05T04:08:26.211Z,74.43
2023-03-05T04:09:29.674Z,75.02
2023-03-05T04:10:32.163Z,74.95
2023-03-05T04:11:37.923Z,75.06
2023-03-05T04:12:43.137Z,74.94
2023-03-05T04:13:47.293Z,74.89
2023-03-05T04:14:50.267Z,75.25
2023-03-05T04:15:53.746Z,74.87
2023-03-05T04:16:56.223Z,74.82
2023-03-05T04:17:59.555Z,74.61
2023-03-05T04:19:01.857Z,74.48
2023-03-05T04:20:07.109Z,74.55
2023-03-05T04:21:10.059Z,75.09
2023-03-05T04:22:14.149Z,75.19
2023-03-05T04:23:17.006Z,74.23
2023-03-05T04:24:20.315Z,75.03
2023-03-05T04:25:22.679Z,74.62
2023-03-05T04:26:26.011Z,75.00
2023-03-05T04:27:29.620Z,75.56
2023-03-05T04:28:33.362Z,75.28
2023-03-05T04:29:36.066Z,75.70
2023-03-05T04:30:39.439Z,76.17
2023-03-05T04:31:41.675Z,76.11
2023-03-05T04:32:45.020Z,76.07
2023-03-05T04:33:47.268Z,75.91
2023-03-05T04:34:50.996Z,75.82
2023-03-05T04:35:53.417Z,76.30
2023-03-05T04:36:56.758Z,76.46
2023-03-05T04:38:00.417Z,76.46
2023-03-05T04:39:02.724Z,76.81
2023-03-05T04:40:07.024Z,77.14
2023-03-05T04:41:09.571Z,76.85
2023-03-05T04:42:12.915Z,76.79
2023-03-05T04:43:16.712Z,77.05
2023-03-05T04:44:20.353Z,77.27
2023-03-05T04:45:22.623Z,77.38
2023-03-05T04:46:26.039Z,77.24
2023-03-05T04:47:28.320Z,77.07
2023-03-05T04:48:31.600Z,77.57
2023-03-05T04:49:33.922Z,77.14
2023-03-05T04:50:37.378Z,77.17
2023-03-05T04:51:39.704Z,77.60
2023-03-05T04:52:44.597Z,77.08
2023-03-05T04:53:47.227Z,77.66
2023-03-05T04:54:50.518Z,77.53
2023-03-05T04:55:53.967Z,76.99
2023-03-05T04:56:57.230Z,76.64
2023-03-05T04:57:59.473Z,76.46
2023-03-05T04:59:04.177Z,75.72
2023-03-05T05:00:14.303Z,75.99
2023-03-05T05:01:17.856Z,75.58
2023-03-05T05:02:20.222Z,75.87
2023-03-05T05:03:23.502Z,76.44
2023-03-05T05:04:25.794Z,76.26
2023-03-05T05:05:30.150Z,75.87
2023-03-05T05:06:32.500Z,76.66
2023-03-05T05:07:36.069Z,76.92
2023-03-05T05:08:38.714Z,77.29
2023-03-05T05:09:42.493Z,77.22
2023-03-05T05:10:44.739Z,77.36
2023-03-05T05:11:48.283Z,77.32
2023-03-05T05:12:50.719Z,77.21
2023-03-05T05:13:54.602Z,76.93
2023-03-05T05:14:59.664Z,76.86
2023-03-05T05:16:03.135Z,77.22
2023-03-05T05:17:05.703Z,77.19
2023-03-05T05:18:09.102Z,77.44
2023-03-05T05:19:11.597Z,78.17
2023-03-05T05:20:17.110Z,78.17
2023-03-05T05:21:20.520Z,78.01
2023-03-05T05:22:24.730Z,77.70
2023-03-05T05:23:27.188Z,78.32
2023-03-05T05:24:30.574Z,77.69
2023-03-05T05:25:33.004Z,77.74
2023-03-05T05:26:36.489Z,78.66
2023-03-05T05:27:39.857Z,79.09
2023-03-05T05:28:44.796Z,78.85
2023-03-05T05:29:50.411Z,78.62
2023-03-05T05:30:55.992Z,78.87
2023-03-05T05:31:58.212Z,78.20
2023-03-05T05:33:01.579Z,77.48
2023-03-05T05:34:03.917Z,78.09
2023-03-05T05:35:08.318Z,78.76
2023-03-05T05:36:13.847Z,78.62
2023-03-05T05:37:17.115Z,79.22
2023-03-05T05:38:19.743Z,78.61
2023-03-05T05:39:23.128Z,78.74
2023-03-05T05:40:25.448Z,78.60
2023-03-05T05:41:28.755Z,79.75
2023-03-05T05:42:31.165Z,80.31
2023-03-05T05:43:34.562Z,80.05
2023-03-05T05:44:36.845Z,79.96
2023-03-05T05:45:40.483Z,79.65
2023-03-05T05:46:44.497Z,80.00
2023-03-05T05:47:47.868Z,79.48
2023-03-05T05:48:50.186Z,80.52
2023-03-05T05:49:53.645Z,80.19
2023-03-05T05:50:56.007Z,79.94
2023-03-05T05:51:59.495Z,80.75
2023-03-05T05:53:01.817Z,81.33
2023-03-05T05:54:05.437Z,81.68
2023-03-05T05:55:08.714Z,81.79
2023-03-05T05:56:13.586Z,81.67
2023-03-05T05:57:16.010Z,81.90
2023-03-05T05:58:19.779Z,81.51
2023-03-05T05:59:22.035Z,81.68
2023-03-05T06:00:25.672Z,81.53
2023-03-05T06:01:29.943Z,80.97
2023-03-05T06:02:34.832Z,80.46
2023-03-05T06:03:37.095Z,80.02
2023-03-05T06:04:40.463Z,80.59
2023-03-05T06:05:43.386Z,80.18
2023-03-05T06:06:46.726Z,80.92
2023-03-05T06:07:49.237Z,80.09
2023-03-05T06:08:53.189Z,80.81
2023-03-05T06:09:55.534Z,80.76
2023-03-05T06:10:58.996Z,80.34
2023-03-05T06:12:02.222Z,80.35
2023-03-05T06:13:04.529Z,79.99
2023-03-05T06:14:08.959Z,80.29
2023-03-05T06:15:11.413Z,80.50
2023-03-05T06:16:17.237Z,80.64
2023-03-05T06:17:29.956Z,80.10
2023-03-05T06:18:36.980Z,79.61
2023-03-05T06:19:39.217Z,79.83
2023-03-05T06:20:42.707Z,79.49
2023-03-05T06:21:45.354Z,79.27
2023-03-05T06:22:48.657Z,79.55
2023-03-05T06:23:52.174Z,79.13
2023-03-05T06:24:55.518Z,79.32
2023-03-05T06:26:00.572Z,80.28
2023-03-05T06:27:04.858Z,80.58
2023-03-05T06:28:07.330Z,80.42
2023-03-05T06:29:10.910Z,80.33
2023-03-05T06:30:13.830Z,80.49
2023-03-05T06:31:22.002Z,79.95
2023-03-05T06:32:24.367Z,79.91
2023-03-05T06:33:27.867Z,79.97
2023-03-05T06:34:31.620Z,79.76
2023-03-05T06:35:35.349Z,80.04
2023-03-05T06:36:40.562Z,79.59
2023-03-05T06:37:42.871Z,79.27
2023-03-05T06:38:48.454Z,78.75
2023-03-05T06:39:51.248Z,79.18
2023-03-05T06:40:54.595Z,79.42
2023-03-05T06:41:58.394Z,79.02
2023-03-05T06:43:00.923Z,78.85
2023-03-05T06:44:04.877Z,78.65
2023-03-05T06:45:08.636Z,78.47
2023-03-05T06:46:14.604Z,78.74
2023-03-05T06:47:17.076Z,78.09
2023-03-05T06:48:20.668Z,78.51
2023-03-05T06:49:23.497Z,77.97
2023-03-05T06:50:28.313Z,77.35
2023-03-05T06:51:32.643Z,77.41
2023-03-05T06:52:36.261Z,77.33
2023-03-05T06:53:38.653Z,76.79
2023-03-05T06:54:42.211Z,77.56
2023-03-05T06:55:44.450Z,76.96
2023-03-05T06:56:48.412Z,76.64
2023-03-05T06:57:50.992Z,76.80
2023-03-05T06:58:54.434Z,76.68
2023-03-05T06:59:56.719Z,76.18
2023-03-05T07:01:00.436Z,76.50
2023-03-05T07:02:02.772Z,76.80
2023-03-05T07:03:06.104Z,76.46
2023-03-05T07:04:08.693Z,76.39
2023-03-05T07:05:12.559Z,77.26
2023-03-05T07:06:16.636Z,76.74
2023-03-05T07:07:20.324Z,76.20
2023-03-05T07:08:22.687Z,76.73
2023-03-05T07:09:25.935Z,76.81
2023-03-05T07:10:28.104Z,76.85
2023-03-05T07:11:31.842Z,76.51
2023-03-05T07:12:34.345Z,76.80
2023-03-05T07:13:37.665Z,76.54
2023-03-05T07:14:39.896Z,76.48
2023-03-05T07:15:43.343Z,76.15
2023-03-05T07:16:45.678Z,76.53
2023-03-05T07:17:49.248Z,76.42
2023-03-05T07:18:52.014Z,75.93
2023-03-05T07:19:55.305Z,75.48
2023-03-05T07:21:02.462Z,75.54
2023-03-05T07:22:07.960Z,75.13
2023-03-05T07:23:10.350Z,74.79
2023-03-05T07:24:13.972Z,74.18
2023-03-05T07:25:21.544Z,74.13
2023-03-05T07:26:25.823Z,74.25
2023-03-05T07:27:28.322Z,74.15
2023-03-05T07:28:31.814Z,74.18
2023-03-05T07:29:34.149Z,73.84
2023-03-05T07:30:37.514Z,73.75
2023-03-05T07:31:39.840Z,74.34
2023-03-05T07:32:43.148Z,73.94
2023-03-05T07:33:45.675Z,73.74
2023-03-05T07:34:49.056Z,74.19
2023-03-05T07:35:51.442Z,73.65
2023-03-05T07:36:54.752Z,73.49
2023-03-05T07:37:58.501Z,73.65
2023-03-05T07:39:01.789Z,73.20
2023-03-05T07:40:04.849Z,72.56
2023-03-05T07:41:09.950Z,72.66
2023-03-05T07:42:13.236Z,72.13
2023-03-05T07:43:16.714Z,71.88
2023-03-05T07:44:20.355Z,71.21
2023-03-05T07:45:23.678Z,70.61
2023-03-05T07:46:29.049Z,69.93
2023-03-05T07:47:32.453Z,68.44
2023-03-05T07:48:34.984Z,67.42
2023-03-05T07:49:39.939Z,66.93
2023-03-05T07:50:43.231Z,65.30
2023-03-05T07:51:46.778Z,64.61
2023-03-05T07:52:50.037Z,64.24
2023-03-05T07:53:55.983Z,62.01
2023-03-05T07:54:59.412Z,60.92
2023-03-05T07:56:01.820Z,59.51
2023-03-05T07:57:05.456Z,60.54
2023-03-05T07:58:08.931Z,60.76
2023-03-05T07:59:14.576Z,59.54
2023-03-05T08:00:17.694Z,58.55
2023-03-05T08:01:20.923Z,56.79
2023-03-05T08:02:23.275Z,55.57
2023-03-05T08:03:26.764Z,54.50
2023-03-05T08:04:32.156Z,52.66
2023-03-05T08:05:34.722Z,50.73
2023-03-05T08:06:41.233Z,50.26
2023-03-05T08:07:43.693Z,49.19
2023-03-05T08:08:47.026Z,48.33
2023-03-05T08:09:50.818Z,46.81
2023-03-05T08:10:54.155Z,47.30
2023-03-05T08:11:57.706Z,47.59
2023-03-05T08:13:00.068Z,46.99
2023-03-05T08:14:04.637Z,47.73
2023-03-05T08:15:09.286Z,47.24
2023-03-05T08:16:15.251Z,46.02
2023-03-05T08:17:18.604Z,46.03
2023-03-05T08:18:20.995Z,45.76
2023-03-05T08:19:24.415Z,45.66
2023-03-05T08:20:27.007Z,45.60
2023-03-05T08:21:33.809Z,45.92
2023-03-05T08:22:36.110Z,44.34
2023-03-05T08:23:39.557Z,45.77
2023-03-05T08:24:42.999Z,47.01
2023-03-05T08:25:47.696Z,48.07
2023-03-05T08:26:50.994Z,48.11
2023-03-05T08:27:53.215Z,49.44
2023-03-05T08:28:56.970Z,50.18
2023-03-05T08:30:00.936Z,50.79
2023-03-05T08:31:09.475Z,51.28
2023-03-05T08:32:12.593Z,50.60
2023-03-05T08:33:17.724Z,49.99
2023-03-05T08:34:21.406Z,49.03
2023-03-05T08:35:24.223Z,48.41
2023-03-05T08:36:27.654Z,47.73
2023-03-05T08:37:29.967Z,47.42
2023-03-05T08:38:33.360Z,47.23
2023-03-05T08:39:35.706Z,46.92
2023-03-05T08:40:39.094Z,47.87
2023-03-05T08:41:42.931Z,48.27
2023-03-05T08:42:46.681Z,48.82
2023-03-05T08:43:49.306Z,48.70
2023-03-05T08:44:52.687Z,47.88
2023-03-05T08:45:55.035Z,49.47
2023-03-05T08:46:58.491Z,50.54
2023-03-05T08:48:00.837Z,50.17
2023-03-05T08:49:04.441Z,48.50
2023-03-05T08:50:07.827Z,48.81
2023-03-05T08:51:13.887Z,48.25
2023-03-05T08:52:17.131Z,48.26
2023-03-05T08:53:19.387Z,47.49
2023-03-05T08:54:22.842Z,47.91
2023-03-05T08:55:25.165Z,47.87
2023-03-05T08:56:31.265Z,48.02
2023-03-05T08:57:35.945Z,47.98
2023-03-05T08:58:38.398Z,48.01
2023-03-05T08:59:41.624Z,48.73
2023-03-05T09:00:43.997Z,49.12
2023-03-05T09:01:47.428Z,48.90
2023-03-05T09:02:49.870Z,47.87
2023-03-05T09:03:53.446Z,47.90
2023-03-05T09:04:56.134Z,48.16
2023-03-05T09:06:02.038Z,47.44
2023-03-05T09:07:04.428Z,46.73
2023-03-05T09:08:07.682Z,45.94
2023-03-05T09:09:11.009Z,45.70
2023-03-05T09:10:14.819Z,46.44
2023-03-05T09:11:18.357Z,46.30
2023-03-05T09:12:20.556Z,46.58
2023-03-05T09:13:25.340Z,47.54
2023-03-05T09:14:28.480Z,47.88
2023-03-05T09:15:32.342Z,49.40
2023-03-05T09:16:36.372Z,50.14
2023-03-05T09:17:41.814Z,49.94
2023-03-05T09:18:45.436Z,50.21
2023-03-05T09:19:47.735Z,50.06
2023-03-05T09:20:51.245Z,49.82
2023-03-05T09:21:55.965Z,51.43
2023-03-05T09:23:00.217Z,50.85
2023-03-05T09:24:03.551Z,51.12
2023-03-05T09:25:08.006Z,50.08
2023-03-05T09:26:13.249Z,49.53
2023-03-05T09:27:16.592Z,49.85
2023-03-05T09:28:19.080Z,49.81
2023-03-05T09:29:23.911Z,50.94
2023-03-05T09:30:26.285Z,51.12
2023-03-05T09:31:29.780Z,51.75
2023-03-05T09:32:32.404Z,52.06
2023-03-05T09:33:36.296Z,52.49
2023-03-05T09:34:39.609Z,53.82
2023-03-05T09:35:43.384Z,53.89
2023-03-05T09:36:46.846Z,52.50
2023-03-05T09:37:49.329Z,52.72
2023-03-05T09:38:53.481Z,53.60
2023-03-05T09:39:55.841Z,53.38
2023-03-05T09:41:03.714Z,53.12
2023-03-05T09:42:38.910Z,52.64
2023-03-05T09:43:50.566Z,54.06
2023-03-05T09:45:02.745Z,53.53
2023-03-05T09:46:16.873Z,52.50
2023-03-05T09:47:38.360Z,51.90
2023-03-05T09:48:50.979Z,52.45
2023-03-05T09:50:03.762Z,51.60
2023-03-05T09:51:12.695Z,52.52
2023-03-05T09:52:21.066Z,53.72
2023-03-05T09:53:32.158Z,53.40
2023-03-05T09:54:40.197Z,54.58
2023-03-05T09:55:45.549Z,53.73
2023-03-05T09:56:51.605Z,53.23
2023-03-05T09:57:59.632Z,51.62
2023-03-05T09:59:16.320Z,52.31
2023-03-05T10:00:34.719Z,52.44
2023-03-05T10:01:42.304Z,53.13
2023-03-05T10:02:50.728Z,51.92
2023-03-05T10:03:58.526Z,52.68
2023-03-05T10:05:04.610Z,51.85
2023-03-05T10:06:14.997Z,51.91
2023-03-05T10:07:21.656Z,50.71
2023-03-05T10:08:33.037Z,50.13
2023-03-05T10:09:46.747Z,50.27
2023-03-05T10:10:53.521Z,49.16
2023-03-05T10:12:00.376Z,46.85
2023-03-05T10:13:13.501Z,45.65
2023-03-05T10:14:21.544Z,46.12
2023-03-05T10:15:35.802Z,46.23
2023-03-05T10:17:17.225Z,44.84
2023-03-05T10:18:26.341Z,44.56
2023-03-05T10:19:55.135Z,43.16
2023-03-05T10:21:01.147Z,44.65
2023-03-05T10:22:16.258Z,43.63
2023-03-05T10:23:31.824Z,44.59
2023-03-05T10:24:50.040Z,42.93
2023-03-05T10:26:00.146Z,41.66
2023-03-05T10:27:09.432Z,42.26
2023-03-05T10:28:18.090Z,42.03
2023-03-05T10:29:45.843Z,43.69
2023-03-05T10:31:04.692Z,44.08
2023-03-05T10:32:23.704Z,43.17
2023-03-05T10:33:36.251Z,44.23
2023-03-05T10:34:59.929Z,43.96
2023-03-05T10:36:31.391Z,44.10
2023-03-05T10:37:55.537Z,43.63
2023-03-05T10:39:29.862Z,41.34
2023-03-05T10:40:42.023Z,40.79
2023-03-05T10:41:56.088Z,40.74
2023-03-05T10:43:06.510Z,41.84
2023-03-05T10:44:16.712Z,42.27
2023-03-05T10:45:24.288Z,43.30
2023-03-05T10:46:32.775Z,44.08
2023-03-05T10:47:45.256Z,45.73
2023-03-05T10:48:52.480Z,45.25
2023-03-05T10:49:56.750Z,44.43
2023-03-05T10:51:05.745Z,44.27
2023-03-05T10:52:18.179Z,45.58
2023-03-05T10:53:26.991Z,46.76
2023-03-05T10:54:31.814Z,47.02
2023-03-05T10:55:35.161Z,46.82
2023-03-05T10:56:37.680Z,46.32
2023-03-05T10:57:40.941Z,45.74
2023-03-05T10:58:43.354Z,46.29
2023-03-05T10:59:51.022Z,46.48
2023-03-05T11:01:02.351Z,47.52
2023-03-05T11:02:09.783Z,47.28
2023-03-05T11:03:12.236Z,46.01
2023-03-05T11:04:29.008Z,45.88
2023-03-05T11:05:41.557Z,46.84
2023-03-05T11:06:46.922Z,46.21
2023-03-05T11:07:49.242Z,46.71
2023-03-05T11:08:52.677Z,45.97
2023-03-05T11:10:05.981Z,45.05
2023-03-05T11:11:16.899Z,45.77
2023-03-05T11:12:21.358Z,45.60
2023-03-05T11:13:28.859Z,46.16
2023-03-05T11:14:33.576Z,45.76
2023-03-05T11:15:36.920Z,45.32
2023-03-05T11:16:48.373Z,46.17
2023-03-05T11:18:07.415Z,46.09
2023-03-05T11:19:22.494Z,47.85
2023-03-05T11:20:33.079Z,47.52
2023-03-05T11:21:36.387Z,47.23
2023-03-05T11:22:38.826Z,47.07
2023-03-05T11:23:42.116Z,47.49
2023-03-05T11:24:46.802Z,47.82
2023-03-05T11:25:59.341Z,47.07
2023-03-05T11:27:03.054Z,47.92
2023-03-05T11:28:05.320Z,48.57
2023-03-05T11:29:20.089Z,48.53
2023-03-05T11:30:27.361Z,49.29
2023-03-05T11:31:33.510Z,48.77
2023-03-05T11:32:35.871Z,49.99
2023-03-05T11:33:40.656Z,48.88
2023-03-05T11:34:43.077Z,49.36
2023-03-05T11:35:46.783Z,49.95
2023-03-05T11:37:04.700Z,49.69
2023-03-05T11:38:16.232Z,50.41
2023-03-05T11:39:22.635Z,49.68
2023-03-05T11:40:28.076Z,48.84
2023-03-05T11:41:37.009Z,49.75
2023-03-05T11:42:41.262Z,49.72
2023-03-05T11:43:45.215Z,50.03
2023-03-05T11:44:50.285Z,51.73
2023-03-05T11:45:56.109Z,51.14
2023-03-05T11:47:05.444Z,51.18
2023-03-05T11:48:14.266Z,51.90
2023-03-05T11:49:22.700Z,54.04
2023-03-05T11:50:27.071Z,55.16
2023-03-05T11:51:42.500Z,52.59
2023-03-05T11:52:48.341Z,52.50
2023-03-05T11:53:55.763Z,53.14
2023-03-05T11:55:06.190Z,53.76
2023-03-05T11:56:19.105Z,54.28
2023-03-05T11:57:25.262Z,55.38
2023-03-05T11:58:32.644Z,53.56
2023-03-05T11:59:39.731Z,52.67
2023-03-05T12:00:44.081Z,51.41
2023-03-05T12:01:50.839Z,50.90
2023-03-05T12:02:57.022Z,53.30
2023-03-05T12:04:01.524Z,52.30
2023-03-05T12:05:06.538Z,52.08
2023-03-05T12:06:16.607Z,51.40
2023-03-05T12:07:23.185Z,51.97
2023-03-05T12:08:31.063Z,53.81
2023-03-05T12:09:41.057Z,51.61
2023-03-05T12:10:44.589Z,51.36
2023-03-05T12:11:53.068Z,51.44
2023-03-05T12:13:00.439Z,51.33
2023-03-05T12:14:09.353Z,50.55
2023-03-05T12:15:35.029Z,51.43
2023-03-05T12:16:42.633Z,51.08
2023-03-05T12:17:48.714Z,51.22
2023-03-05T12:19:02.138Z,50.91
2023-03-05T12:20:14.019Z,51.30
2023-03-05T12:21:27.186Z,51.53
2023-03-05T12:22:35.947Z,50.70
2023-03-05T12:23:53.969Z,50.92
2023-03-05T12:25:25.896Z,51.78
2023-03-05T12:27:06.688Z,53.61
2023-03-05T12:28:16.293Z,54.49
2023-03-05T12:29:29.959Z,54.98
2023-03-05T12:30:57.844Z,53.75
2023-03-05T12:32:02.408Z,52.98
2023-03-05T12:33:06.061Z,52.70
2023-03-05T12:34:49.439Z,53.51
2023-03-05T12:35:54.265Z,54.58
2023-03-05T12:36:56.685Z,55.16
2023-03-05T12:38:27.252Z,54.54
2023-03-05T12:39:49.750Z,55.34
2023-03-05T12:40:53.048Z,54.84
2023-03-05T12:41:56.707Z,54.80
2023-03-05T12:43:02.901Z,54.97
2023-03-05T12:44:19.460Z,53.66
2023-03-05T12:45:34.885Z,53.52
2023-03-05T12:46:38.115Z,53.16
2023-03-05T12:47:42.263Z,52.50
2023-03-05T12:48:44.868Z,50.96
2023-03-05T12:49:49.847Z,51.20
2023-03-05T12:50:59.016Z,51.31
2023-03-05T12:52:05.246Z,50.08
2023-03-05T12:53:14.641Z,49.80
2023-03-05T12:54:28.977Z,50.55
2023-03-05T12:55:34.765Z,51.63
2023-03-05T12:56:45.576Z,52.07
2023-03-05T12:57:53.816Z,52.85
2023-03-05T12:58:58.989Z,51.62
2023-03-05T13:00:08.771Z,51.37
2023-03-05T13:01:25.007Z,51.71
2023-03-05T13:02:33.578Z,51.58
2023-03-05T13:03:39.213Z,50.92
2023-03-05T13:04:47.289Z,50.65
2023-03-05T13:05:53.850Z,51.59
2023-03-05T13:07:04.427Z,51.91
2023-03-05T13:08:14.198Z,51.48
2023-03-05T13:09:24.612Z,49.73
2023-03-05T13:10:30.682Z,49.76
2023-03-05T13:11:37.805Z,50.50
2023-03-05T13:12:41.425Z,50.42
2023-03-05T13:13:46.520Z,49.65
2023-03-05T13:14:58.759Z,49.99
2023-03-05T13:16:03.624Z,49.36
2023-03-05T13:17:35.565Z,48.29
2023-03-05T13:18:47.054Z,48.58
2023-03-05T13:19:49.452Z,49.59
2023-03-05T13:21:04.621Z,51.49
2023-03-05T13:22:12.123Z,51.21
2023-03-05T13:23:19.949Z,52.73
2023-03-05T13:24:23.818Z,51.91
2023-03-05T13:25:26.113Z,51.36
2023-03-05T13:26:30.726Z,52.61
2023-03-05T13:27:33.699Z,53.40
2023-03-05T13:28:39.383Z,52.22
2023-03-05T13:29:51.827Z,50.57
2023-03-05T13:30:58.432Z,51.39
2023-03-05T13:32:02.667Z,52.02
2023-03-05T13:33:07.057Z,52.71
2023-03-05T13:34:17.188Z,53.26
2023-03-05T13:35:22.113Z,53.55
2023-03-05T13:36:27.122Z,52.82
2023-03-05T13:37:35.653Z,52.07
2023-03-05T13:38:42.440Z,52.59
2023-03-05T13:39:50.632Z,52.77
2023-03-05T13:41:19.673Z,52.24
2023-03-05T13:42:25.921Z,52.85
2023-03-05T13:43:28.164Z,53.49
2023-03-05T13:44:32.524Z,52.80
2023-03-05T13:45:34.835Z,53.78
2023-03-05T13:46:40.599Z,53.65
2023-03-05T13:47:53.056Z,52.06
2023-03-05T13:48:56.792Z,52.36
2023-03-05T13:50:01.975Z,52.79
2023-03-05T13:51:07.008Z,53.10
2023-03-05T13:52:10.543Z,53.67
2023-03-05T13:53:21.469Z,53.27
2023-03-05T13:54:25.744Z,53.42
2023-03-05T13:55:29.261Z,53.20
2023-03-05T13:56:31.856Z,53.01
2023-03-05T13:57:38.614Z,53.36
2023-03-05T13:58:52.584Z,53.06
2023-03-05T13:59:56.337Z,52.87
2023-03-05T14:01:05.336Z,52.39
2023-03-05T14:02:18.390Z,51.22
2023-03-05T14:03:25.073Z,50.01